Página principal
METAR-TAF:

METAR-TAF

Aeroportos :

Aeroporto de Budapeste Ferenc Liszt

Budapeste, Hungria

latitude: 47-26N, longitude: 019-16E, altura: 151 m

Observação actual do tempo

O boletim foi feito há 19 minutos, às 06:30 UTC
Vento 1 kt com direcção variável
Temperatura 23°C
Humidade 78%
Pressão 1018 hPa
Visibilidade 10 km ou mais
sem nuvens abaixo de 1500 metros e sem cumulonimbus

METAR: LHBP 120630Z VRB01KT CAVOK 23/19 Q1018 NOSIG

Hora: 08:49 (06:49 UTC)

Previsão

O boletim foi feito há 1 hora e 34 minutos, às 05:15 UTC
Previsão válida de 12 às 06 UTC a 13 às 06 UTC
Vento 6 kt de norte
Visibilidade 10 km ou mais
sem nuvens abaixo de 1500 metros e sem cumulonimbus
Temporariamente
de 12 às 12 UTC a 12 às 15 UTC
Vento 6 kt de es-nordeste
Poucas nuvensa uma altura de 4500 ft, Cumulus congestus.
aguaceiros fracos de chuva
Tornando-se
de 12 às 15 UTC a 12 às 17 UTC
Vento 6 kt de este

TAF: LHBP 120515Z 1206/1306 35006KT CAVOK TEMPO 1212/1215 06006KT -SHRA FEW045TCU BECMG 1215/1217 08006KT

Observações e previsões do tempo de mais de 4000 aeroportos (mensagens METAR e TAF).

As estações disponíveis são os pontos amarelos e vermelhos sobre o mapa.

Mova o rato sobre o mapa para ver o nome da estação.

Depois clique no ponto para visualizar as observações e previsões meteorológicas.

Para alterar o mapa : clique nos botões verdes com uma cruz preta para aumentar o zoom; no botão verde com uma pitada de zoom; ou nas setas verdes para mapas adjacentes.


METAR-TAF: